Time;durP1;ratioP1;P1;durP2;ratioP2;P2;SDS_P1;SDS_P2;PMS_P1;PMS_P2;Temp;Humidity;BMP_temperature;BMP_pressure;BME280_temperature;BME280_humidity;BME280_pressure;Samples;Min_cycle;Max_cycle;Signal;HPM_P1;HPM_P2
2021/10/02 00:41:15;;;;;;;9.47;6.90;;;13.60;99.90;;;;;;5042665;28;20858;-58
2021/10/02 00:46:28;;;;;;;9.00;6.40;;;13.50;99.90;;;;;;5041341;28;20534;-58
2021/10/02 00:48:55;;;;;;;9.07;6.50;;;13.60;99.90;;;;;;5032075;28;20950;-59
2021/10/02 00:51:24;;;;;;;9.37;6.50;;;13.50;99.90;;;;;;5034739;28;20517;-58
2021/10/02 00:53:51;;;;;;;9.30;6.73;;;13.50;99.90;;;;;;5051365;28;20961;-58
2021/10/02 00:56:18;;;;;;;8.83;6.30;;;13.40;99.90;;;;;;5051654;28;20541;-59
2021/10/02 00:58:48;;;;;;;8.37;6.40;;;13.50;99.90;;;;;;5051917;28;20506;-58
2021/10/02 01:01:17;;;;;;;7.77;5.87;;;13.50;99.90;;;;;;5051452;28;20570;-59
2021/10/02 01:03:50;;;;;;;11.50;4.90;;;13.60;99.90;;;;;;5049220;28;20535;-58
2021/10/02 01:06:34;;;;;;;6.83;5.50;;;13.50;99.90;;;;;;5051672;28;21142;-58
2021/10/02 01:09:08;;;;;;;7.50;5.70;;;13.50;99.90;;;;;;5050022;28;20456;-59
2021/10/02 01:11:56;;;;;;;9.23;5.03;;;13.50;99.90;;;;;;5035421;28;20493;-59
2021/10/02 01:14:32;;;;;;;7.77;5.20;;;13.60;99.90;;;;;;5051716;28;20452;-58
2021/10/02 01:17:06;;;;;;;9.00;5.60;;;13.60;99.90;;;;;;5050579;28;21004;-59
2021/10/02 01:20:00;;;;;;;9.40;6.30;;;13.70;99.90;;;;;;5041399;28;20874;-58
2021/10/02 01:22:57;;;;;;;8.07;5.93;;;13.70;99.90;;;;;;5042411;28;20509;-58
2021/10/02 01:25:39;;;;;;;7.47;5.30;;;13.70;99.90;;;;;;5049099;28;20566;-58
2021/10/02 01:28:10;;;;;;;6.40;4.73;;;13.80;99.90;;;;;;5051305;28;20509;-58
2021/10/02 01:30:54;;;;;;;7.30;5.10;;;13.80;99.90;;;;;;5041308;28;20444;-59
2021/10/02 01:33:32;;;;;;;8.33;5.33;;;13.80;99.90;;;;;;5051427;28;20542;-59
2021/10/02 01:36:16;;;;;;;5.97;5.00;;;13.80;99.90;;;;;;5051131;28;20475;-58
2021/10/02 01:47:15;;;;;;;6.40;4.80;;;13.90;99.90;;;;;;5051410;28;20451;-58
2021/10/02 01:49:47;;;;;;;4.80;4.30;;;14.00;99.90;;;;;;5051505;28;20475;-58
2021/10/02 01:52:15;;;;;;;8.10;5.10;;;13.90;99.90;;;;;;5051066;28;20509;-59
2021/10/02 01:54:44;;;;;;;6.03;4.33;;;13.90;99.90;;;;;;5051116;28;20448;-58
2021/10/02 01:57:11;;;;;;;4.70;4.13;;;13.90;99.90;;;;;;5051031;28;20554;-58
2021/10/02 01:59:42;;;;;;;6.57;4.90;;;14.00;99.90;;;;;;5050089;28;20451;-58
2021/10/02 02:02:10;;;;;;;6.10;4.67;;;14.00;99.90;;;;;;5050547;28;20949;-58
2021/10/02 02:04:40;;;;;;;5.70;3.97;;;14.00;99.90;;;;;;5051159;28;20501;-59
2021/10/02 02:07:09;;;;;;;6.63;4.60;;;13.90;99.90;;;;;;5051339;28;20464;-58
2021/10/02 02:09:40;;;;;;;4.60;4.03;;;14.00;99.90;;;;;;5051098;28;21003;-58
2021/10/02 02:12:10;;;;;;;4.57;4.00;;;14.00;99.90;;;;;;5051216;28;20440;-58
2021/10/02 02:14:40;;;;;;;4.70;3.87;;;13.90;99.90;;;;;;5049541;28;20449;-58
2021/10/02 02:17:09;;;;;;;4.37;3.53;;;13.90;99.90;;;;;;5051035;28;20525;-58
2021/10/02 02:19:36;;;;;;;5.27;3.90;;;13.90;99.90;;;;;;5050701;28;20448;-58
2021/10/02 02:22:04;;;;;;;5.90;4.13;;;14.00;99.90;;;;;;5050800;28;20483;-59
2021/10/02 02:24:33;;;;;;;4.37;3.63;;;14.00;99.90;;;;;;5051031;28;20455;-58
2021/10/02 02:27:01;;;;;;;4.23;3.70;;;14.00;99.90;;;;;;5050489;28;20985;-58
2021/10/02 02:29:31;;;;;;;4.80;4.10;;;14.10;99.90;;;;;;5050364;28;20509;-58
2021/10/02 02:32:00;;;;;;;4.50;3.80;;;14.10;99.90;;;;;;5054208;28;20450;-58
2021/10/02 02:34:29;;;;;;;5.50;4.27;;;14.10;99.90;;;;;;5054342;28;20455;-58
2021/10/02 02:36:56;;;;;;;4.83;3.70;;;14.10;99.90;;;;;;5054310;28;20525;-58
2021/10/02 02:39:24;;;;;;;5.40;3.73;;;14.00;99.90;;;;;;5053856;28;20451;-58
2021/10/02 02:41:51;;;;;;;5.00;3.93;;;14.00;99.90;;;;;;5054021;28;20900;-58
2021/10/02 02:44:18;;;;;;;15.00;7.90;;;14.00;99.90;;;;;;5054307;28;20517;-57
2021/10/02 02:46:53;;;;;;;13.50;6.70;;;13.90;99.90;;;;;;5035412;28;20476;-58
2021/10/02 02:49:28;;;;;;;8.27;5.00;;;13.90;99.90;;;;;;5051375;28;20497;-58
2021/10/02 02:52:01;;;;;;;7.97;4.10;;;14.00;99.90;;;;;;5053786;28;20493;-58
2021/10/02 02:54:33;;;;;;;6.33;3.90;;;14.00;99.90;;;;;;5054063;28;20456;-58
2021/10/02 02:57:07;;;;;;;3.60;3.17;;;14.00;99.90;;;;;;5054317;28;20525;-58
2021/10/02 02:59:37;;;;;;;3.90;3.50;;;14.00;99.90;;;;;;5053701;28;20831;-58
2021/10/02 03:02:07;;;;;;;3.60;3.00;;;14.00;99.90;;;;;;5038958;28;20549;-58
2021/10/02 03:04:36;;;;;;;3.57;2.93;;;14.00;99.90;;;;;;5036899;28;20451;-59
2021/10/02 03:07:06;;;;;;;3.47;2.70;;;14.00;99.90;;;;;;5052669;28;20594;-58
2021/10/02 03:09:38;;;;;;;4.43;3.10;;;14.00;99.90;;;;;;5053817;28;20452;-58
2021/10/02 03:12:06;;;;;;;2.93;2.67;;;13.90;99.90;;;;;;5053734;28;20443;-58
2021/10/02 03:14:36;;;;;;;3.00;2.60;;;14.00;99.90;;;;;;5053751;28;20448;-58
2021/10/02 03:17:04;;;;;;;3.60;3.17;;;14.00;99.90;;;;;;5049616;28;20481;-58
2021/10/02 03:19:36;;;;;;;6.20;4.77;;;14.00;99.90;;;;;;5051232;28;20505;-58
2021/10/02 03:22:07;;;;;;;3.70;3.30;;;14.00;99.90;;;;;;5053400;28;20549;-58
2021/10/02 03:24:36;;;;;;;3.90;3.33;;;14.00;99.90;;;;;;5053622;28;20546;-59
2021/10/02 03:27:05;;;;;;;3.40;2.77;;;14.00;99.90;;;;;;5053371;28;20474;-58
2021/10/02 03:29:34;;;;;;;4.00;3.20;;;14.00;99.90;;;;;;5053225;28;20447;-58
2021/10/02 03:32:02;;;;;;;4.40;3.10;;;13.90;99.90;;;;;;5052679;28;20501;-58
2021/10/02 03:34:30;;;;;;;5.43;2.87;;;13.80;99.90;;;;;;5051381;28;20525;-59
2021/10/02 03:36:57;;;;;;;2.90;2.60;;;13.90;99.90;;;;;;5052807;28;20564;-58
2021/10/02 03:39:25;;;;;;;3.70;2.70;;;13.90;99.90;;;;;;5053188;28;20938;-58
2021/10/02 03:42:10;;;;;;;2.93;2.60;;;13.90;99.90;;;;;;5052418;28;20483;-58
2021/10/02 03:44:40;;;;;;;8.50;3.53;;;13.90;99.90;;;;;;5033263;28;21053;-58
2021/10/02 03:47:07;;;;;;;2.53;2.33;;;13.90;99.90;;;;;;5034855;28;20474;-58
2021/10/02 03:49:34;;;;;;;2.70;2.50;;;13.90;99.90;;;;;;5052947;28;20452;-58
2021/10/02 03:52:01;;;;;;;3.80;2.60;;;13.90;99.90;;;;;;5053081;28;20443;-58
2021/10/02 03:54:30;;;;;;;4.07;2.83;;;13.90;99.90;;;;;;5050736;28;20445;-58
2021/10/02 03:56:57;;;;;;;3.40;3.10;;;13.90;99.90;;;;;;5045631;28;20471;-58
2021/10/02 03:59:23;;;;;;;3.30;2.80;;;13.90;99.90;;;;;;5055426;28;20501;-59
2021/10/02 04:01:50;;;;;;;6.20;3.00;;;13.90;99.90;;;;;;5055095;28;20529;-59
2021/10/02 04:04:17;;;;;;;3.83;3.10;;;13.80;99.90;;;;;;5041462;28;20453;-59
2021/10/02 04:06:44;;;;;;;8.73;2.87;;;13.80;99.90;;;;;;5033317;28;20476;-58
2021/10/02 04:09:11;;;;;;;2.87;2.57;;;13.80;99.90;;;;;;5052961;28;20455;-59
2021/10/02 04:11:40;;;;;;;2.83;2.63;;;13.80;99.90;;;;;;5052275;28;20448;-58
2021/10/02 04:14:07;;;;;;;3.13;2.83;;;13.80;99.90;;;;;;5052430;28;20451;-58
2021/10/02 04:16:34;;;;;;;2.80;2.60;;;13.90;99.90;;;;;;5052437;28;20541;-58
2021/10/02 04:19:01;;;;;;;3.57;2.80;;;13.80;99.90;;;;;;5051394;28;20443;-59
2021/10/02 04:21:28;;;;;;;3.17;2.83;;;13.80;99.90;;;;;;5041142;28;20890;-59
2021/10/02 04:23:55;;;;;;;3.43;3.03;;;13.80;99.90;;;;;;5032671;28;20498;-59
2021/10/02 04:26:22;;;;;;;3.37;3.07;;;13.80;99.90;;;;;;5041771;28;20475;-59
2021/10/02 04:28:51;;;;;;;3.30;2.87;;;13.80;99.90;;;;;;5051806;28;20509;-59
2021/10/02 04:31:18;;;;;;;2.83;2.57;;;13.70;99.90;;;;;;5052051;28;20448;-58
2021/10/02 04:33:45;;;;;;;3.20;2.70;;;13.70;99.90;;;;;;5051863;28;20883;-58
2021/10/02 04:36:13;;;;;;;3.30;3.00;;;13.60;99.90;;;;;;5051421;28;20474;-59
2021/10/02 04:38:40;;;;;;;4.50;3.80;;;13.70;99.90;;;;;;5052305;28;20501;-59
2021/10/02 04:41:09;;;;;;;3.80;3.40;;;13.60;99.90;;;;;;5051886;28;20475;-58
2021/10/02 04:43:40;;;;;;;3.60;3.00;;;13.60;99.90;;;;;;5051389;28;20452;-59
2021/10/02 04:46:10;;;;;;;3.70;3.30;;;13.50;99.90;;;;;;5049981;28;20482;-58
2021/10/02 04:48:37;;;;;;;4.73;3.50;;;13.50;99.90;;;;;;5051358;28;20484;-58
2021/10/02 04:51:04;;;;;;;3.30;3.00;;;13.50;99.90;;;;;;5048906;28;21192;-58
2021/10/02 04:53:32;;;;;;;4.27;3.50;;;13.40;99.90;;;;;;5050978;28;20448;-58
2021/10/02 04:56:00;;;;;;;4.33;3.67;;;13.30;99.90;;;;;;5035663;28;20548;-58
2021/10/02 04:58:28;;;;;;;3.00;2.80;;;13.30;99.90;;;;;;5034868;28;20448;-58
2021/10/02 05:00:55;;;;;;;4.93;3.33;;;13.30;99.90;;;;;;5051517;28;20533;-58
2021/10/02 05:03:23;;;;;;;4.57;3.20;;;13.20;99.90;;;;;;5047740;28;20520;-58
2021/10/02 05:05:50;;;;;;;4.80;3.50;;;13.20;99.90;;;;;;5051842;28;20513;-59
2021/10/02 05:08:18;;;;;;;3.67;3.23;;;13.00;99.90;;;;;;5051786;28;20501;-58
2021/10/02 05:10:45;;;;;;;5.23;3.30;;;13.00;99.90;;;;;;5051397;28;20498;-59
2021/10/02 05:13:13;;;;;;;4.90;3.80;;;13.00;99.90;;;;;;5051878;28;20807;-58
2021/10/02 05:15:41;;;;;;;6.20;4.10;;;12.90;99.90;;;;;;5050987;28;20475;-58
2021/10/02 05:18:07;;;;;;;8.60;3.97;;;12.80;99.90;;;;;;5041419;28;20452;-58
2021/10/02 05:20:37;;;;;;;5.30;3.57;;;12.70;99.90;;;;;;5031427;28;21000;-58
2021/10/02 05:23:05;;;;;;;4.77;4.10;;;12.70;99.90;;;;;;5048526;28;20452;-58
2021/10/02 05:25:32;;;;;;;5.70;4.43;;;12.80;99.90;;;;;;5039881;28;20464;-58
2021/10/02 05:27:59;;;;;;;5.33;3.80;;;12.80;99.90;;;;;;5032970;28;20452;-58
2021/10/02 05:30:29;;;;;;;6.00;3.87;;;12.80;99.90;;;;;;5031487;28;20510;-59
2021/10/02 05:32:56;;;;;;;6.40;4.30;;;12.80;99.90;;;;;;5035907;28;20455;-58
2021/10/02 05:35:23;;;;;;;7.27;4.47;;;12.70;99.90;;;;;;5049076;28;20918;-59
2021/10/02 05:37:51;;;;;;;6.07;4.03;;;12.70;99.90;;;;;;5050700;28;20444;-58
2021/10/02 05:40:19;;;;;;;5.80;3.97;;;12.70;99.90;;;;;;5051204;28;20498;-59
2021/10/02 05:42:45;;;;;;;6.00;3.93;;;12.70;99.90;;;;;;5051280;28;20484;-58
2021/10/02 05:45:12;;;;;;;5.70;4.10;;;12.70;99.90;;;;;;5050347;28;20443;-58
2021/10/02 05:47:40;;;;;;;6.30;4.27;;;12.70;99.90;;;;;;5051393;28;20448;-58
2021/10/02 05:50:07;;;;;;;5.37;4.50;;;12.80;99.90;;;;;;5050571;28;20452;-59
2021/10/02 05:52:34;;;;;;;7.30;4.43;;;12.80;99.90;;;;;;5050521;28;20520;-58
2021/10/02 05:55:02;;;;;;;6.53;4.63;;;12.90;99.90;;;;;;5040171;28;20572;-58
2021/10/02 05:57:29;;;;;;;6.67;4.37;;;13.10;99.90;;;;;;5048143;28;20865;-58
2021/10/02 05:59:56;;;;;;;4.93;4.00;;;13.10;99.90;;;;;;5049140;28;20471;-58
2021/10/02 06:02:23;;;;;;;5.43;4.20;;;13.10;99.90;;;;;;5049698;28;20902;-57
2021/10/02 06:04:50;;;;;;;4.90;3.93;;;13.20;99.90;;;;;;5047803;28;20521;-57
2021/10/02 06:07:18;;;;;;;5.10;3.27;;;13.40;99.90;;;;;;5052922;28;20475;-57
2021/10/02 06:09:45;;;;;;;4.23;3.23;;;13.60;99.90;;;;;;5053425;28;20509;-57
2021/10/02 06:12:13;;;;;;;4.50;3.40;;;13.80;99.90;;;;;;5054419;28;20493;-57
2021/10/02 06:14:40;;;;;;;4.10;3.23;;;14.00;99.90;;;;;;5054957;28;20462;-57
2021/10/02 06:17:07;;;;;;;5.10;3.50;;;14.20;99.90;;;;;;5054042;28;20479;-56
2021/10/02 06:19:34;;;;;;;3.30;3.00;;;14.20;99.90;;;;;;5054571;28;20507;-58
2021/10/02 06:22:01;;;;;;;4.57;3.47;;;14.30;99.90;;;;;;5054186;28;20545;-57
2021/10/02 06:24:30;;;;;;;4.30;3.60;;;14.50;99.90;;;;;;5051985;28;20443;-58
2021/10/02 06:26:57;;;;;;;3.07;2.80;;;14.60;99.90;;;;;;5052738;28;20521;-57
2021/10/02 06:29:26;;;;;;;3.03;2.73;;;14.60;99.90;;;;;;5045554;28;20456;-58
2021/10/02 06:31:53;;;;;;;4.90;3.17;;;14.50;99.90;;;;;;5034342;28;20823;-58
2021/10/02 06:34:20;;;;;;;5.43;3.27;;;14.20;99.90;;;;;;5034374;28;20448;-58
2021/10/02 06:36:47;;;;;;;3.40;3.07;;;14.20;99.90;;;;;;5041156;28;20538;-58
2021/10/02 06:39:14;;;;;;;5.30;3.20;;;14.20;99.90;;;;;;5052147;28;20439;-58
2021/10/02 06:41:41;;;;;;;4.00;3.43;;;14.10;99.90;;;;;;5054152;28;21010;-58
2021/10/02 06:44:11;;;;;;;7.03;3.93;;;14.00;99.90;;;;;;5054194;28;20451;-58
2021/10/02 06:46:39;;;;;;;4.53;3.80;;;14.10;99.90;;;;;;5052730;28;20499;-57
2021/10/02 06:49:06;;;;;;;4.37;3.40;;;14.20;99.90;;;;;;5034182;28;20506;-58
2021/10/02 06:51:33;;;;;;;4.50;3.57;;;14.30;99.90;;;;;;5033837;28;20503;-57
2021/10/02 06:54:00;;;;;;;4.50;3.83;;;14.60;99.90;;;;;;5033907;28;21087;-58
2021/10/02 06:56:27;;;;;;;4.17;3.80;;;14.70;99.90;;;;;;5050993;28;20537;-58
2021/10/02 06:58:54;;;;;;;4.90;3.90;;;14.90;99.90;;;;;;5053618;28;20995;-58
2021/10/02 07:01:21;;;;;;;8.40;4.30;;;15.00;99.90;;;;;;5053461;28;20456;-57
2021/10/02 07:03:50;;;;;;;6.83;3.60;;;15.00;99.90;;;;;;5053788;28;20877;-58
2021/10/02 07:06:17;;;;;;;4.73;3.10;;;15.10;99.90;;;;;;5053134;28;20478;-57
2021/10/02 07:08:44;;;;;;;8.53;3.70;;;15.10;99.90;;;;;;5035682;28;20515;-57
2021/10/02 07:11:11;;;;;;;5.10;3.40;;;15.00;99.90;;;;;;5053612;28;20808;-58
2021/10/02 07:13:38;;;;;;;3.50;3.20;;;15.10;99.90;;;;;;5053564;28;20933;-58
2021/10/02 07:16:05;;;;;;;5.83;3.90;;;15.00;99.90;;;;;;5051882;28;20530;-57
2021/10/02 07:18:32;;;;;;;3.57;3.27;;;14.90;99.90;;;;;;5053459;28;20505;-58
2021/10/02 07:21:01;;;;;;;5.77;3.03;;;14.70;99.90;;;;;;5052420;28;20505;-58
2021/10/02 07:23:29;;;;;;;4.87;3.33;;;14.80;99.90;;;;;;5053281;28;20544;-58
2021/10/02 07:25:56;;;;;;;4.90;3.33;;;14.90;99.90;;;;;;5053241;28;20490;-57
2021/10/02 07:28:24;;;;;;;3.83;3.20;;;14.90;99.90;;;;;;5052079;28;20459;-58
2021/10/02 07:30:51;;;;;;;4.67;3.60;;;15.10;99.90;;;;;;5052857;28;20447;-58
2021/10/02 07:33:18;;;;;;;4.17;3.17;;;15.40;99.90;;;;;;5053390;28;20493;-58
2021/10/02 07:35:45;;;;;;;4.23;2.90;;;15.50;99.90;;;;;;5052664;28;20969;-58
2021/10/02 07:38:13;;;;;;;5.03;3.80;;;15.50;99.90;;;;;;5053274;28;20501;-58
2021/10/02 07:40:41;;;;;;;5.57;3.40;;;15.60;99.90;;;;;;5053055;28;20498;-58
2021/10/02 07:43:11;;;;;;;6.40;3.30;;;15.60;99.90;;;;;;5053063;28;20483;-58
2021/10/02 07:45:40;;;;;;;3.13;2.87;;;15.60;99.90;;;;;;5053367;28;20977;-57
2021/10/02 07:48:09;;;;;;;5.17;3.10;;;15.70;99.90;;;;;;5033640;28;20515;-58
2021/10/02 07:50:37;;;;;;;3.37;2.87;;;15.60;99.90;;;;;;5048822;28;20807;-58
2021/10/02 07:53:04;;;;;;;4.93;2.60;;;15.60;99.90;;;;;;5053308;28;20444;-58
2021/10/02 07:55:34;;;;;;;3.20;2.90;;;15.60;99.90;;;;;;5052367;28;20468;-58
2021/10/02 07:58:02;;;;;;;2.83;2.63;;;15.70;99.90;;;;;;5052943;28;20498;-58
2021/10/02 08:00:29;;;;;;;3.30;3.00;;;15.90;99.90;;;;;;5052544;28;20513;-58
2021/10/02 08:02:56;;;;;;;4.43;2.60;;;16.20;99.90;;;;;;5053132;28;20936;-58
2021/10/02 08:05:25;;;;;;;3.50;3.20;;;16.40;99.90;;;;;;5052934;28;20463;-58
2021/10/02 08:07:52;;;;;;;4.90;3.73;;;16.70;99.90;;;;;;5052345;28;20450;-58
2021/10/02 08:10:24;;;;;;;2.90;2.57;;;16.90;99.90;;;;;;5052144;28;20514;-58
2021/10/02 08:12:53;;;;;;;5.73;2.90;;;17.10;99.90;;;;;;5051725;28;20448;-58
2021/10/02 08:15:21;;;;;;;3.07;2.50;;;17.50;99.90;;;;;;5050417;28;20985;-57
2021/10/02 08:17:49;;;;;;;4.13;2.50;;;17.60;99.90;;;;;;5049998;28;20447;-58
2021/10/02 08:20:19;;;;;;;3.03;2.60;;;17.70;99.90;;;;;;5052383;28;20493;-58
2021/10/02 08:22:48;;;;;;;3.70;2.20;;;17.80;99.90;;;;;;5052193;28;20521;-58
2021/10/02 08:25:17;;;;;;;3.47;3.00;;;18.00;99.90;;;;;;5051708;28;20505;-58
2021/10/02 08:27:45;;;;;;;7.80;2.73;;;18.20;99.90;;;;;;5044187;28;20535;-58
2021/10/02 08:30:15;;;;;;;4.23;2.53;;;18.10;99.90;;;;;;5052164;28;20506;-58
2021/10/02 08:32:42;;;;;;;4.97;2.60;;;18.30;99.90;;;;;;5051912;28;20973;-58
2021/10/02 08:35:11;;;;;;;2.53;2.33;;;18.20;99.90;;;;;;5051147;28;20459;-58
2021/10/02 08:37:38;;;;;;;1.90;1.80;;;18.40;99.90;;;;;;5052016;28;20451;-59
2021/10/02 08:40:08;;;;;;;2.30;2.10;;;18.30;99.90;;;;;;5052418;28;20502;-59
2021/10/02 08:42:37;;;;;;;3.17;2.23;;;18.30;99.90;;;;;;5051349;28;20473;-59
2021/10/02 08:45:06;;;;;;;4.80;2.60;;;18.30;99.90;;;;;;5051292;28;20456;-59
2021/10/02 08:47:36;;;;;;;2.90;2.50;;;18.40;99.90;;;;;;5052067;28;20801;-59
2021/10/02 08:50:05;;;;;;;3.50;2.60;;;18.80;99.90;;;;;;5052073;28;20458;-59
2021/10/02 08:52:33;;;;;;;7.93;3.17;;;19.40;99.90;;;;;;5051715;28;20448;-58
2021/10/02 08:55:02;;;;;;;2.60;2.17;;;19.80;99.90;;;;;;5050802;28;20511;-58
2021/10/02 08:57:34;;;;;;;4.60;2.70;;;20.10;99.90;;;;;;5051577;28;20483;-59
2021/10/02 09:00:02;;;;;;;2.67;2.10;;;20.10;99.90;;;;;;5051910;28;20509;-58
2021/10/02 09:02:29;;;;;;;5.07;2.60;;;20.10;99.90;;;;;;5051165;28;21004;-58
2021/10/02 09:04:58;;;;;;;7.90;2.83;;;20.20;99.90;;;;;;5051048;28;20509;-58
2021/10/02 09:07:25;;;;;;;2.40;2.20;;;20.70;99.90;;;;;;5051920;28;20458;-59
2021/10/02 09:09:54;;;;;;;2.90;2.30;;;21.20;99.90;;;;;;5051103;28;20443;-58
2021/10/02 09:12:22;;;;;;;4.47;2.43;;;21.50;99.90;;;;;;5050358;28;20544;-59
2021/10/02 09:14:52;;;;;;;2.80;2.60;;;21.70;99.90;;;;;;5050818;28;20542;-59
2021/10/02 09:17:20;;;;;;;3.00;2.70;;;21.90;99.90;;;;;;5051464;28;20487;-59
2021/10/02 09:19:48;;;;;;;3.33;2.97;;;22.10;99.90;;;;;;5044429;28;20453;-58
2021/10/02 09:22:21;;;;;;;24.07;5.23;;;22.20;99.90;;;;;;5035371;28;20475;-59
2021/10/02 09:24:49;;;;;;;26.30;3.63;;;21.90;99.90;;;;;;5031769;28;20464;-58
2021/10/02 09:27:18;;;;;;;3.90;2.10;;;21.80;99.90;;;;;;5031552;28;20468;-59
2021/10/02 09:29:46;;;;;;;2.70;2.50;;;21.60;99.90;;;;;;5036975;28;20448;-58
2021/10/02 09:32:16;;;;;;;4.53;2.50;;;21.80;99.90;;;;;;5051152;28;20448;-58
2021/10/02 09:34:46;;;;;;;2.23;2.03;;;22.00;99.90;;;;;;5051513;28;20481;-58
2021/10/02 09:37:24;;;;;;;3.83;2.10;;;22.20;99.90;;;;;;5051139;28;20471;-59
2021/10/02 09:39:56;;;;;;;1.90;1.80;;;22.60;99.90;;;;;;5047762;28;20448;-59
2021/10/02 09:42:30;;;;;;;1.80;1.70;;;23.00;99.90;;;;;;5045352;28;20479;-58
2021/10/02 09:45:03;;;;;;;2.90;2.40;;;23.00;99.90;;;;;;5055699;28;20447;-58
2021/10/02 09:47:30;;;;;;;2.67;2.07;;;23.10;99.90;;;;;;5055421;28;20514;-59
2021/10/02 09:49:57;;;;;;;4.00;3.10;;;23.20;99.90;;;;;;5054270;28;20447;-59
2021/10/02 09:52:32;;;;;;;3.17;2.90;;;23.40;99.90;;;;;;5055130;28;20447;-58
2021/10/02 09:55:00;;;;;;;5.00;2.50;;;23.60;99.90;;;;;;5054638;28;20860;-59
2021/10/02 09:57:27;;;;;;;6.00;2.40;;;23.70;99.90;;;;;;5042159;28;20449;-59
2021/10/02 10:00:08;;;;;;;13.40;3.30;;;24.00;99.90;;;;;;5045955;28;20592;-59
2021/10/02 10:02:39;;;;;;;9.00;1.90;;;24.20;99.90;;;;;;5050580;28;20534;-58
2021/10/02 10:05:07;;;;;;;4.33;2.43;;;24.60;99.90;;;;;;5040854;28;20820;-59
2021/10/02 10:07:36;;;;;;;2.37;2.17;;;24.50;99.90;;;;;;5054626;28;20533;-59
2021/10/02 10:10:08;;;;;;;2.13;1.93;;;24.40;99.90;;;;;;5054099;28;20448;-59
2021/10/02 10:12:36;;;;;;;1.70;1.60;;;24.50;99.90;;;;;;5054193;28;20965;-59
2021/10/02 10:15:05;;;;;;;3.83;1.87;;;24.50;99.90;;;;;;5048336;28;20455;-58
2021/10/02 10:17:32;;;;;;;1.93;1.83;;;24.80;99.90;;;;;;5053799;28;20451;-58
2021/10/02 10:20:10;;;;;;;2.67;2.00;;;24.70;99.90;;;;;;5054378;28;20460;-59
2021/10/02 10:22:38;;;;;;;5.60;2.13;;;24.40;99.90;;;;;;5051818;28;20471;-60
2021/10/02 10:25:07;;;;;;;3.87;1.97;;;24.20;99.90;;;;;;5048669;28;20871;-60
2021/10/02 10:27:40;;;;;;;2.57;1.80;;;24.50;99.90;;;;;;5053915;28;20451;-60
2021/10/02 10:30:14;;;;;;;2.90;2.30;;;24.60;99.90;;;;;;5053857;28;21015;-61
2021/10/02 10:32:56;;;;;;;1.80;1.70;;;24.70;99.90;;;;;;5054286;28;20937;-60
2021/10/02 10:35:24;;;;;;;4.90;1.93;;;24.90;99.90;;;;;;5053634;28;20464;-59
2021/10/02 10:37:53;;;;;;;2.37;2.17;;;24.90;99.90;;;;;;5053435;28;20447;-58
2021/10/02 10:40:20;;;;;;;1.83;1.73;;;24.80;99.90;;;;;;5054004;28;20451;-59
2021/10/02 10:42:47;;;;;;;3.40;1.97;;;24.40;99.90;;;;;;5054224;28;20483;-59
2021/10/02 10:45:15;;;;;;;1.80;1.70;;;24.00;99.90;;;;;;5040255;28;20445;-58
2021/10/02 10:47:44;;;;;;;1.93;1.83;;;23.70;99.90;;;;;;5034226;28;20832;-59
2021/10/02 10:50:11;;;;;;;4.93;1.60;;;23.80;99.90;;;;;;5048349;28;20455;-59
2021/10/02 10:52:40;;;;;;;1.80;1.70;;;23.70;99.90;;;;;;5053349;28;20448;-59
2021/10/02 10:55:13;;;;;;;2.30;2.10;;;23.50;99.90;;;;;;5052351;28;20865;-59
2021/10/02 10:57:43;;;;;;;3.37;1.90;;;23.70;99.90;;;;;;5053913;28;20447;-59
2021/10/02 11:00:15;;;;;;;1.80;1.70;;;23.90;99.90;;;;;;5053762;28;20443;-59
2021/10/02 11:02:52;;;;;;;1.80;1.67;;;23.80;99.90;;;;;;5053592;28;20505;-60
2021/10/02 11:05:47;;;;;;;2.53;2.33;;;23.90;99.90;;;;;;5052664;28;20542;-60
2021/10/02 11:08:19;;;;;;;3.00;2.13;;;23.90;99.90;;;;;;5052444;28;20452;-60
2021/10/02 11:10:55;;;;;;;2.30;2.17;;;23.90;99.90;;;;;;5040605;28;20452;-59
2021/10/02 11:13:54;;;;;;;2.40;2.20;;;23.70;99.90;;;;;;5033677;28;20952;-61
2021/10/02 11:16:35;;;;;;;3.60;1.97;;;23.80;99.90;;;;;;5046347;28;20479;-59
2021/10/02 11:19:03;;;;;;;2.53;2.33;;;23.70;99.90;;;;;;5051398;28;20455;-60
2021/10/02 11:21:31;;;;;;;2.60;2.20;;;23.80;99.90;;;;;;5041393;28;21039;-59
2021/10/02 11:24:08;;;;;;;2.60;2.40;;;23.90;99.90;;;;;;5052405;28;20484;-60
2021/10/02 11:26:49;;;;;;;2.77;2.57;;;23.80;99.90;;;;;;5053363;28;20474;-60
2021/10/02 11:29:28;;;;;;;2.30;2.20;;;23.80;99.90;;;;;;5053528;28;20454;-60
2021/10/02 11:32:21;;;;;;;3.60;2.30;;;23.70;99.90;;;;;;5047402;28;20499;-60
2021/10/02 11:35:24;;;;;;;2.63;2.43;;;23.30;99.90;;;;;;5045555;28;20444;-59
2021/10/02 11:37:55;;;;;;;3.10;2.70;;;23.30;99.90;;;;;;5040291;28;20462;-59
2021/10/02 11:40:45;;;;;;;2.70;2.50;;;23.30;99.90;;;;;;5052844;28;20443;-60
2021/10/02 11:43:25;;;;;;;2.63;2.30;;;23.40;99.90;;;;;;5039818;28;20616;-60
2021/10/02 11:46:10;;;;;;;3.43;2.60;;;23.40;99.90;;;;;;5052860;28;20907;-60
2021/10/02 11:48:42;;;;;;;2.63;2.43;;;23.30;99.90;;;;;;5046199;28;20498;-61
2021/10/02 11:51:18;;;;;;;3.20;2.87;;;23.20;99.90;;;;;;5052349;28;20884;-61
2021/10/02 11:53:48;;;;;;;2.87;2.67;;;23.20;99.90;;;;;;5052807;28;20435;-60
2021/10/02 11:56:19;;;;;;;4.07;2.83;;;23.10;99.90;;;;;;5052987;28;20883;-60
2021/10/02 11:58:49;;;;;;;2.93;2.73;;;23.20;99.90;;;;;;5052966;28;20498;-60
2021/10/02 12:01:18;;;;;;;3.10;2.80;;;23.00;99.90;;;;;;5052306;28;20444;-59
2021/10/02 12:03:45;;;;;;;4.50;3.00;;;22.80;99.90;;;;;;5052069;28;20561;-60
2021/10/02 12:06:12;;;;;;;2.73;2.53;;;22.70;99.90;;;;;;5052130;28;20509;-60
2021/10/02 12:08:40;;;;;;;4.40;3.00;;;22.80;99.90;;;;;;5041205;28;20456;-60
2021/10/02 12:11:10;;;;;;;2.93;2.63;;;22.90;99.90;;;;;;5051807;28;20491;-60
2021/10/02 12:13:39;;;;;;;2.93;2.40;;;22.90;99.90;;;;;;5050445;28;21200;-59
2021/10/02 12:16:10;;;;;;;4.50;3.20;;;23.00;99.90;;;;;;5043758;28;20569;-60
2021/10/02 12:18:49;;;;;;;3.07;2.77;;;23.00;99.90;;;;;;5046001;28;20444;-60
2021/10/02 12:21:25;;;;;;;4.07;3.67;;;23.00;99.90;;;;;;5034756;28;20448;-60
2021/10/02 12:23:55;;;;;;;3.60;3.30;;;23.20;99.90;;;;;;5042597;28;20475;-60
2021/10/02 12:26:22;;;;;;;3.20;2.70;;;23.20;99.90;;;;;;5044573;28;20514;-59
2021/10/02 12:28:55;;;;;;;3.57;3.27;;;23.10;99.90;;;;;;5052238;28;20876;-59
2021/10/02 12:31:24;;;;;;;4.73;3.30;;;23.10;99.90;;;;;;5033130;28;20445;-59
2021/10/02 12:33:50;;;;;;;4.50;3.27;;;23.00;99.90;;;;;;5032788;28;20522;-60
2021/10/02 12:36:37;;;;;;;3.90;3.23;;;22.90;99.90;;;;;;5032179;28;20909;-60
2021/10/02 12:39:04;;;;;;;5.57;3.23;;;22.90;99.90;;;;;;5032131;28;20449;-60
2021/10/02 12:41:40;;;;;;;7.17;4.87;;;23.10;99.90;;;;;;5034020;28;20903;-60
2021/10/02 12:44:16;;;;;;;4.97;3.10;;;23.10;99.90;;;;;;5044961;28;20507;-59
2021/10/02 12:46:45;;;;;;;4.00;3.60;;;23.00;99.90;;;;;;5032041;28;20472;-59
2021/10/02 12:49:13;;;;;;;6.90;3.47;;;22.90;99.90;;;;;;5050885;28;20547;-59
2021/10/02 12:51:41;;;;;;;8.10;3.47;;;23.00;99.90;;;;;;5049506;28;20950;-59
2021/10/02 12:54:09;;;;;;;3.80;3.10;;;23.00;99.90;;;;;;5031694;28;20456;-59
2021/10/02 12:56:36;;;;;;;6.50;3.40;;;22.90;99.90;;;;;;5040277;28;20897;-59
2021/10/02 12:59:14;;;;;;;4.43;3.73;;;22.90;99.90;;;;;;5040350;28;20494;-59
2021/10/02 13:01:47;;;;;;;3.90;3.60;;;23.00;99.90;;;;;;5031791;28;20456;-60
2021/10/02 13:04:18;;;;;;;4.40;3.60;;;23.00;99.90;;;;;;5045386;28;20479;-60
2021/10/02 13:06:54;;;;;;;4.10;3.70;;;23.20;99.90;;;;;;5051283;28;20541;-59
2021/10/02 13:09:21;;;;;;;4.07;3.67;;;23.10;99.90;;;;;;5049795;28;20448;-60
2021/10/02 13:11:49;;;;;;;3.83;3.43;;;23.30;99.90;;;;;;5050911;28;20497;-59
2021/10/02 13:14:30;;;;;;;3.90;3.60;;;23.30;99.90;;;;;;5050208;28;20444;-59
2021/10/02 13:17:03;;;;;;;4.40;4.00;;;23.10;99.90;;;;;;5051214;28;20479;-60
2021/10/02 13:19:31;;;;;;;4.27;3.87;;;23.00;99.90;;;;;;5051450;28;21022;-59
2021/10/02 13:22:15;;;;;;;3.67;3.37;;;23.00;99.90;;;;;;5050932;28;20455;-59
2021/10/02 13:25:10;;;;;;;5.77;4.33;;;23.00;99.90;;;;;;5051437;28;20504;-59
2021/10/02 13:27:39;;;;;;;5.90;4.20;;;23.10;99.90;;;;;;5051450;28;20512;-59
2021/10/02 13:30:10;;;;;;;4.53;4.00;;;23.10;99.90;;;;;;5051708;28;20537;-59
2021/10/02 13:32:39;;;;;;;5.50;4.00;;;23.20;99.90;;;;;;5051712;28;20443;-59
2021/10/02 13:35:09;;;;;;;3.90;3.50;;;23.10;99.90;;;;;;5051222;28;20498;-60
2021/10/02 13:37:36;;;;;;;3.57;3.27;;;23.10;99.90;;;;;;5051307;28;20447;-59
2021/10/02 13:40:05;;;;;;;4.50;3.27;;;23.00;99.90;;;;;;5051456;28;20443;-60
2021/10/02 13:42:33;;;;;;;3.93;3.30;;;22.90;99.90;;;;;;5043934;28;20585;-59
2021/10/02 13:45:01;;;;;;;4.43;3.43;;;23.00;99.90;;;;;;5051221;28;20479;-60
2021/10/02 13:47:28;;;;;;;5.40;3.20;;;23.10;99.90;;;;;;5050147;28;20456;-60
2021/10/02 13:49:57;;;;;;;4.43;3.47;;;23.20;99.90;;;;;;5051091;28;20530;-59
2021/10/02 13:52:24;;;;;;;6.53;3.73;;;23.30;99.90;;;;;;5051241;28;20448;-60